OwLS Head — WDJ5742 — position and weather

sailwx.info

Track history (hours):
 
Tides and Currents Weather Stations Pressure Air Temp Water Temp Dewpoint Dewpoint Depression Visibility Wind Speed Wind Dir Waves Ship Positions

OwLS Head

Owner: HNY Ferry Fleet LLC, New York, NY. More information available from US FCC via Universal Licensing System and Coast Guard Vessel Documentation Center.

Last reported at 2017-Nov-15 20:22 UTC. Time now 2017-Dec-18 03:21 UTC.
Position N 39°34' W 074°13'.
Warning: this ship's position is 32 days out of date.

Length 26 m; draft 2 m.

Type: Passenger vessel. MMSI: 367790830.

Date/timePositionNaut miles runAvg speedWind from/ knotsBaromVisibWave heightAir tempDewpointWater temp
2017-Nov-15 20:22N 39°34' W 074°13'823.3
2017-Nov-15 20:01N 39°41' W 074°07'4423.5
2017-Nov-15 18:08N 40°25' W 073°57'423.6
2017-Nov-15 17:58N 40°29' W 073°57'1022.6
2017-Nov-15 17:30N 40°38' W 074°03'4 8.6
2017-Nov-15 17:00N 40°42' W 074°00'1 3.0
2017-Nov-15 16:31N 40°42' W 073°58'0 0.0
2017-Nov-15 00:48N 40°42' W 073°58'2 5.5
2017-Nov-15 00:30N 40°42' W 074°00'3 6.9
2017-Nov-15 00:00N 40°39' W 074°02'2 4.3
2017-Nov-14 23:30N 40°41' W 074°01'1 2.5
2017-Nov-14 23:00N 40°42' W 074°00'3 7.0
2017-Nov-14 22:30N 40°39' W 074°02'2 4.3
2017-Nov-14 22:00N 40°41' W 074°01'1 2.7
2017-Nov-14 21:30N 40°42' W 074°00'1 1.3
2017-Nov-14 21:01N 40°42' W 074°00'4 7.1
2017-Nov-14 20:30N 40°38' W 074°02'4 7.1
2017-Nov-14 20:01N 40°42' W 074°00'1 1.4
2017-Nov-14 19:30N 40°42' W 073°60'4 7.5
2017-Nov-14 19:01N 40°39' W 074°02'2 4.4
2017-Nov-14 18:30N 40°41' W 074°01'1 2.6
2017-Nov-14 18:01N 40°42' W 074°00'1 2.7
2017-Nov-14 17:31N 40°41' W 074°01'2 4.4
2017-Nov-14 17:01N 40°39' W 074°02'4 7.3
2017-Nov-14 16:30N 40°42' W 073°60'1 1.4
2017-Nov-14 16:01N 40°42' W 074°00'4 7.1
2017-Nov-14 15:30N 40°38' W 074°02'4 7.1
2017-Nov-14 15:01N 40°42' W 074°00'0 0.2
2017-Nov-14 14:30N 40°42' W 074°00'4 7.0
2017-Nov-14 14:00N 40°38' W 074°02'4 7.1
2017-Nov-14 13:30N 40°42' W 074°00'0 0.0
2017-Nov-14 13:01N 40°42' W 074°00'4 7.0
2017-Nov-14 12:30N 40°38' W 074°02'5 9.6
2017-Nov-14 12:00N 40°42' W 073°58'0 0.0
2017-Nov-14 00:05N 40°42' W 073°58'0 0.3
2017-Nov-14 00:01N 40°42' W 073°58'3 6.2
2017-Nov-13 23:29N 40°45' W 073°57'4 7.8
2017-Nov-13 23:00N 40°42' W 074°00'4 7.9
2017-Nov-13 22:30N 40°45' W 073°57'1 2.3
2017-Nov-13 21:59N 40°46' W 073°56'1 0.1
2017-Nov-13 02:00N 40°45' W 073°57'4 8.1
2017-Nov-13 01:30N 40°42' W 074°00'4 7.4
2017-Nov-13 00:58N 40°45' W 073°57'1 1.2
2017-Nov-13 00:29N 40°46' W 073°57'3 6.3
2017-Nov-13 00:00N 40°43' W 073°58'1 2.9
2017-Nov-12 23:30N 40°45' W 073°58'2 4.7
2017-Nov-12 23:00N 40°46' W 073°56'2 4.0
2017-Nov-12 22:30N 40°45' W 073°58'1 2.0
2017-Nov-12 22:00N 40°44' W 073°58'3 5.9
2017-Nov-12 21:30N 40°46' W 073°56'1 2.3
2017-Nov-12 21:00N 40°45' W 073°57'4 8.0
2017-Nov-12 20:30N 40°42' W 074°00'4 8.1
2017-Nov-12 20:00N 40°45' W 073°57'1 1.7
2017-Nov-12 19:30N 40°46' W 073°56'3 6.0
2017-Nov-12 19:01N 40°43' W 073°58'1 2.5
2017-Nov-12 18:30N 40°45' W 073°58'2 4.1
2017-Nov-12 17:58N 40°46' W 073°56'2 3.9
2017-Nov-12 17:30N 40°45' W 073°57'2 4.6
2017-Nov-12 17:00N 40°43' W 073°59'4 7.7
2017-Nov-12 16:29N 40°46' W 073°56'1 2.6
2017-Nov-12 15:59N 40°45' W 073°57'4 8.2
2017-Nov-12 15:30N 40°42' W 074°00'4 7.9
2017-Nov-12 15:00N 40°45' W 073°57'1 1.5
2017-Nov-12 14:30N 40°46' W 073°57'3 6.4
2017-Nov-12 14:00N 40°43' W 073°58'2 3.1
2017-Nov-12 13:30N 40°45' W 073°58'2 4.4
2017-Nov-12 13:00N 40°46' W 073°56'2 3.6
2017-Nov-12 12:30N 40°45' W 073°58'3 5.4
2017-Nov-12 12:01N 40°43' W 073°59'4 8.7
2017-Nov-12 11:30N 40°46' W 073°56'4 8.9
2017-Nov-12 11:00N 40°42' W 073°58'0 0.0
2017-Nov-12 03:36N 40°42' W 073°58'0 2.4
2017-Nov-12 03:31N 40°42' W 073°59'4 7.5
2017-Nov-12 03:00N 40°46' W 073°57'2 3.7
2017-Nov-12 02:30N 40°44' W 073°58'0 0.5
2017-Nov-12 02:00N 40°45' W 073°58'2 4.4
2017-Nov-12 01:29N 40°46' W 073°56'2 4.7
2017-Nov-12 01:00N 40°45' W 073°58'2 4.5
2017-Nov-12 00:30N 40°42' W 073°59'4 8.5
2017-Nov-12 00:00N 40°46' W 073°56'1 2.5
2017-Nov-11 23:30N 40°45' W 073°57'4 7.9
2017-Nov-11 23:00N 40°42' W 074°00'4 7.8
2017-Nov-11 22:30N 40°45' W 073°57'0 0.5
2017-Nov-11 21:59N 40°46' W 073°57'4 8.0
2017-Nov-11 21:30N 40°42' W 073°60'3 5.9
2017-Nov-11 21:00N 40°45' W 073°57'2 3.4
2017-Nov-11 20:30N 40°46' W 073°56'2 3.8
2017-Nov-11 20:00N 40°45' W 073°58'2 4.5
2017-Nov-11 19:30N 40°43' W 073°59'4 8.1
2017-Nov-11 19:00N 40°46' W 073°56'1 2.2
2017-Nov-11 18:30N 40°45' W 073°57'4 8.1
2017-Nov-11 18:00N 40°42' W 074°00'4 8.0
2017-Nov-11 17:30N 40°45' W 073°57'1 1.0
2017-Nov-11 16:59N 40°46' W 073°57'2 4.8
2017-Nov-11 16:30N 40°44' W 073°58'1 1.7
2017-Nov-11 16:00N 40°45' W 073°58'2 4.4
2017-Nov-11 15:29N 40°46' W 073°56'2 4.1
2017-Nov-11 15:00N 40°45' W 073°58'1 2.0
2017-Nov-11 14:30N 40°44' W 073°58'3 5.8
2017-Nov-11 14:00N 40°46' W 073°56'5 0.5
2017-Nov-11 04:20N 40°42' W 073°58'0 0.9
2017-Nov-11 04:01N 40°42' W 073°59'4 8.4
2017-Nov-11 03:30N 40°39' W 074°02'4 7.4
2017-Nov-11 03:00N 40°42' W 073°60'0 0.3
2017-Nov-11 02:31N 40°42' W 073°60'4 8.2
2017-Nov-11 02:00N 40°38' W 074°02'4 7.1
2017-Nov-11 01:31N 40°42' W 074°00'1 1.3
2017-Nov-11 01:00N 40°42' W 074°00'3 7.0
2017-Nov-11 00:30N 40°39' W 074°02'2 4.4
2017-Nov-11 00:01N 40°41' W 074°01'2 3.0
2017-Nov-10 23:30N 40°42' W 073°60'4 7.4
2017-Nov-10 23:00N 40°39' W 074°02'2 4.6
2017-Nov-10 22:30N 40°41' W 074°01'1 2.4
2017-Nov-10 22:00N 40°42' W 074°00'3 5.4
2017-Nov-10 21:30N 40°40' W 074°01'1 2.8
2017-Nov-10 21:01N 40°41' W 074°01'1 2.5
2017-Nov-10 20:30N 40°42' W 074°00'1 2.8
2017-Nov-10 20:01N 40°41' W 074°01'2 4.1
2017-Nov-10 19:30N 40°39' W 074°02'4 7.3
2017-Nov-10 19:01N 40°42' W 073°60'1 1.5
2017-Nov-10 18:30N 40°42' W 074°00'4 7.1
2017-Nov-10 18:00N 40°38' W 074°02'4 7.1
2017-Nov-10 17:30N 40°42' W 074°00'1 1.5
2017-Nov-10 17:00N 40°42' W 073°60'4 7.4
2017-Nov-10 16:30N 40°39' W 074°02'2 4.4
2017-Nov-10 16:01N 40°41' W 074°01'1 2.7
2017-Nov-10 15:30N 40°42' W 074°00'1 1.2
2017-Nov-10 15:01N 40°42' W 074°00'2 4.3
2017-Nov-10 14:31N 40°43' W 073°58'4 7.1
2017-Nov-10 14:00N 40°46' W 073°56'1 2.4
2017-Nov-10 13:30N 40°45' W 073°57'4 8.2
2017-Nov-10 13:01N 40°42' W 074°00'4 7.9
2017-Nov-10 12:30N 40°45' W 073°57'3 6.5
2017-Nov-10 12:00N 40°42' W 073°59'0 0.9
2017-Nov-10 11:30N 40°42' W 073°58'0 0.0
2017-Nov-10 04:02N 40°42' W 073°58'0 0.0
2017-Nov-10 04:00N 40°42' W 073°58'1 2.4
2017-Nov-10 03:30N 40°42' W 073°60'4 7.4
2017-Nov-10 03:00N 40°39' W 074°02'2 4.4
2017-Nov-10 02:30N 40°41' W 074°01'1 2.6
2017-Nov-10 02:00N 40°42' W 074°00'1 2.7
2017-Nov-10 01:30N 40°41' W 074°01'2 4.3
2017-Nov-10 01:00N 40°39' W 074°02'4 7.4
2017-Nov-10 00:30N 40°42' W 073°60'0 0.9
2017-Nov-10 00:01N 40°42' W 074°00'4 7.0
2017-Nov-09 23:30N 40°39' W 074°02'2 4.4
2017-Nov-09 23:00N 40°41' W 074°01'1 2.9
2017-Nov-09 22:30N 40°42' W 073°60'4 7.3
2017-Nov-09 22:00N 40°39' W 074°02'2 4.5
2017-Nov-09 21:30N 40°41' W 074°01'1 2.6
2017-Nov-09 21:00N 40°42' W 074°00'2 3.0
2017-Nov-09 20:30N 40°42' W 073°58'0 0.0
2017-Nov-09 20:00N 40°42' W 073°58'0 0.0
2017-Nov-09 19:30N 40°42' W 073°58'0 0.0
2017-Nov-09 19:00N 40°42' W 073°58'0 0.0
2017-Nov-09 18:30N 40°42' W 073°58'0 0.0
2017-Nov-09 18:00N 40°42' W 073°58'3 5.9
2017-Nov-09 17:31N 40°40' W 074°01'3 5.3
2017-Nov-09 17:00N 40°38' W 074°03'5 9.5
2017-Nov-09 16:30N 40°42' W 074°00'2 3.1
2017-Nov-09 16:00N 40°42' W 073°58'1 3.0
2017-Nov-09 15:31N 40°42' W 074°00'4 7.1
2017-Nov-09 15:00N 40°38' W 074°02'4 7.1
2017-Nov-09 14:30N 40°42' W 074°00'0 0.0
2017-Nov-09 14:00N 40°42' W 074°00'4 7.1
2017-Nov-09 13:31N 40°38' W 074°02'4 7.1
2017-Nov-09 13:01N 40°42' W 074°00'0 0.1
2017-Nov-09 12:30N 40°42' W 074°00'4 7.1
2017-Nov-09 12:01N 40°38' W 074°02'5 9.1
2017-Nov-09 11:30N 40°42' W 073°58'0 0.0
2017-Nov-09 03:36N 40°42' W 073°58'0 1.6
2017-Nov-09 03:30N 40°42' W 073°58'4 7.3
2017-Nov-09 03:00N 40°46' W 073°57'0 0.4
2017-Nov-09 02:30N 40°45' W 073°57'3 6.6
2017-Nov-09 02:00N 40°43' W 073°59'3 5.2
2017-Nov-09 01:30N 40°45' W 073°57'2 3.3
2017-Nov-09 01:00N 40°46' W 073°56'2 4.7
2017-Nov-09 00:30N 40°45' W 073°58'0 0.3
2017-Nov-09 00:00N 40°44' W 073°58'2 4.8
2017-Nov-08 23:30N 40°46' W 073°56'2 3.5
2017-Nov-08 23:01N 40°45' W 073°57'3 6.8
2017-Nov-08 22:30N 40°42' W 074°00'4 7.8
2017-Nov-08 22:00N 40°45' W 073°57'0 0.1
2017-Nov-08 21:30N 40°45' W 073°57'4 7.2
2017-Nov-08 21:00N 40°42' W 073°59'3 5.9
2017-Nov-08 20:30N 40°45' W 073°57'2 3.3
2017-Nov-08 20:00N 40°46' W 073°56'2 4.7
2017-Nov-08 19:30N 40°45' W 073°58'0 0.1
2017-Nov-08 19:00N 40°45' W 073°58'2 4.0
2017-Nov-08 18:26N 40°46' W 073°56'2 4.0
2017-Nov-08 18:01N 40°45' W 073°57'3 7.0
2017-Nov-08 17:31N 40°42' W 074°00'4 8.3
2017-Nov-08 17:00N 40°46' W 073°57'0 0.3
2017-Nov-08 16:30N 40°45' W 073°57'4 7.3
2017-Nov-08 16:01N 40°42' W 073°59'3 5.9
2017-Nov-08 15:30N 40°45' W 073°57'2 3.3
2017-Nov-08 14:59N 40°46' W 073°56'0 0.2
2017-Nov-08 14:30N 40°46' W 073°56'3 5.7
2017-Nov-08 14:01N 40°44' W 073°58'1 1.8
2017-Nov-08 13:30N 40°45' W 073°58'2 4.1
2017-Nov-08 12:59N 40°46' W 073°56'2 3.7
2017-Nov-08 12:30N 40°45' W 073°57'2 3.1
2017-Nov-08 12:01N 40°43' W 073°58'3 6.2
2017-Nov-08 11:29N 40°46' W 073°56'5 9.4
2017-Nov-08 11:00N 40°42' W 073°58'1 0.1
2017-Nov-08 03:52N 40°42' W 073°59'411.7
2017-Nov-08 03:30N 40°39' W 074°02'4 7.4
2017-Nov-08 03:00N 40°42' W 073°60'0 0.8
2017-Nov-08 02:30N 40°42' W 074°00'4 7.7
2017-Nov-08 02:00N 40°38' W 074°02'4 7.2
2017-Nov-08 01:30N 40°42' W 074°00'1 1.3
2017-Nov-08 01:01N 40°42' W 074°00'4 7.0
2017-Nov-08 00:30N 40°39' W 074°02'2 4.4
2017-Nov-08 00:00N 40°41' W 074°01'1 2.9
2017-Nov-07 23:31N 40°42' W 073°60'4 7.3
2017-Nov-07 23:00N 40°39' W 074°02'2 4.5
2017-Nov-07 22:31N 40°41' W 074°01'1 2.5
2017-Nov-07 22:01N 40°42' W 074°00'3 6.9
2017-Nov-07 21:30N 40°39' W 074°02'2 4.3
2017-Nov-07 21:01N 40°41' W 074°01'1 2.7
2017-Nov-07 20:31N 40°42' W 074°00'1 2.5
2017-Nov-07 20:01N 40°41' W 074°01'2 4.0
2017-Nov-07 19:31N 40°39' W 074°02'3 6.9
2017-Nov-07 19:00N 40°42' W 073°60'1 1.5
2017-Nov-07 18:31N 40°42' W 074°00'4 7.1
2017-Nov-07 18:00N 40°38' W 074°02'4 7.1
2017-Nov-07 17:30N 40°42' W 074°00'1 1.5
2017-Nov-07 17:01N 40°42' W 073°60'4 7.4
2017-Nov-07 16:30N 40°39' W 074°02'2 4.4
2017-Nov-07 16:00N 40°41' W 074°01'1 2.6
2017-Nov-07 15:30N 40°42' W 074°00'1 1.3
2017-Nov-07 15:01N 40°42' W 074°00'4 7.1
2017-Nov-07 14:30N 40°38' W 074°02'4 7.1
2017-Nov-07 14:00N 40°42' W 074°00'0 0.1
2017-Nov-07 13:30N 40°42' W 074°00'4 7.1
2017-Nov-07 13:01N 40°38' W 074°02'4 7.1
2017-Nov-07 12:31N 40°42' W 074°00'0 0.0
2017-Nov-07 12:00N 40°42' W 074°00'4 7.1
2017-Nov-07 11:30N 40°38' W 074°02'5 9.5
2017-Nov-07 11:01N 40°42' W 073°58'0 0.0
2017-Nov-07 04:06N 40°42' W 073°58'0 0.0
2017-Nov-07 04:00N 40°42' W 073°58'4 8.2
2017-Nov-07 03:30N 40°39' W 074°02'4 7.3
2017-Nov-07 03:00N 40°42' W 073°60'1 1.2
2017-Nov-07 02:30N 40°42' W 074°00'4 7.4
2017-Nov-07 02:00N 40°38' W 074°02'4 7.1
2017-Nov-07 01:31N 40°42' W 074°00'1 1.3
2017-Nov-07 01:00N 40°42' W 074°00'3 6.7
2017-Nov-07 00:31N 40°39' W 074°02'2 4.0
2017-Nov-07 00:00N 40°41' W 074°01'1 2.7
2017-Nov-06 23:31N 40°42' W 074°00'4 7.1
2017-Nov-06 23:00N 40°39' W 074°02'2 4.4
2017-Nov-06 22:31N 40°41' W 074°01'1 2.7
2017-Nov-06 22:00N 40°42' W 074°00'3 6.9
2017-Nov-06 21:30N 40°39' W 074°02'2 4.3
2017-Nov-06 21:00N 40°41' W 074°01'1 2.6
2017-Nov-06 20:30N 40°42' W 074°00'4 0.2
2017-Nov-06 02:30N 40°38' W 074°02'3 6.6
2017-Nov-06 02:00N 40°41' W 074°00'1 1.9
2017-Nov-06 01:30N 40°42' W 073°60'4 7.3
2017-Nov-06 01:00N 40°39' W 074°02'2 4.6
2017-Nov-06 00:30N 40°41' W 074°01'1 2.4
2017-Nov-06 00:00N 40°42' W 074°00'1 2.7
2017-Nov-05 23:31N 40°41' W 074°01'2 4.3
2017-Nov-05 23:00N 40°39' W 074°02'4 7.0
2017-Nov-05 22:30N 40°42' W 074°00'1 2.5
2017-Nov-05 22:01N 40°41' W 074°01'3 5.7
2017-Nov-05 21:30N 40°38' W 074°02'3 6.7
2017-Nov-05 21:00N 40°41' W 074°00'0 0.5
2017-Nov-05 20:30N 40°42' W 074°00'  
Track history (hours):
 
Tides and Currents Weather Stations Pressure Air Temp Water Temp Dewpoint Dewpoint Depression Visibility Wind Speed Wind Dir Waves Ship Positions

OwLS Head

Owner: HNY Ferry Fleet LLC, New York, NY. More information available from US FCC via Universal Licensing System and Coast Guard Vessel Documentation Center.

Last reported at 2017-Nov-15 20:22 UTC. Time now 2017-Dec-18 03:21 UTC.
Position N 39°34' W 074°13'.
Warning: this ship's position is 32 days out of date.

Length 26 m; draft 2 m.

Type: Passenger vessel. MMSI: 367790830.

Date/timePositionNaut miles runAvg speedWind from/ knotsBaromVisibWave heightAir tempDewpointWater temp
2017-Nov-15 20:22N 39°34' W 074°13'823.3
2017-Nov-15 20:01N 39°41' W 074°07'4423.5
2017-Nov-15 18:08N 40°25' W 073°57'423.6
2017-Nov-15 17:58N 40°29' W 073°57'1022.6
2017-Nov-15 17:30N 40°38' W 074°03'4 8.6
2017-Nov-15 17:00N 40°42' W 074°00'1 3.0
2017-Nov-15 16:31N 40°42' W 073°58'0 0.0
2017-Nov-15 00:48N 40°42' W 073°58'2 5.5
2017-Nov-15 00:30N 40°42' W 074°00'3 6.9
2017-Nov-15 00:00N 40°39' W 074°02'2 4.3
2017-Nov-14 23:30N 40°41' W 074°01'1 2.5
2017-Nov-14 23:00N 40°42' W 074°00'3 7.0
2017-Nov-14 22:30N 40°39' W 074°02'2 4.3
2017-Nov-14 22:00N 40°41' W 074°01'1 2.7
2017-Nov-14 21:30N 40°42' W 074°00'1 1.3
2017-Nov-14 21:01N 40°42' W 074°00'4 7.1
2017-Nov-14 20:30N 40°38' W 074°02'4 7.1
2017-Nov-14 20:01N 40°42' W 074°00'1 1.4
2017-Nov-14 19:30N 40°42' W 073°60'4 7.5
2017-Nov-14 19:01N 40°39' W 074°02'2 4.4
2017-Nov-14 18:30N 40°41' W 074°01'1 2.6
2017-Nov-14 18:01N 40°42' W 074°00'1 2.7
2017-Nov-14 17:31N 40°41' W 074°01'2 4.4
2017-Nov-14 17:01N 40°39' W 074°02'4 7.3
2017-Nov-14 16:30N 40°42' W 073°60'1 1.4
2017-Nov-14 16:01N 40°42' W 074°00'4 7.1
2017-Nov-14 15:30N 40°38' W 074°02'4 7.1
2017-Nov-14 15:01N 40°42' W 074°00'0 0.2
2017-Nov-14 14:30N 40°42' W 074°00'4 7.0
2017-Nov-14 14:00N 40°38' W 074°02'4 7.1
2017-Nov-14 13:30N 40°42' W 074°00'0 0.0
2017-Nov-14 13:01N 40°42' W 074°00'4 7.0
2017-Nov-14 12:30N 40°38' W 074°02'5 9.6
2017-Nov-14 12:00N 40°42' W 073°58'0 0.0
2017-Nov-14 00:05N 40°42' W 073°58'0 0.3
2017-Nov-14 00:01N 40°42' W 073°58'3 6.2
2017-Nov-13 23:29N 40°45' W 073°57'4 7.8
2017-Nov-13 23:00N 40°42' W 074°00'4 7.9
2017-Nov-13 22:30N 40°45' W 073°57'1 2.3
2017-Nov-13 21:59N 40°46' W 073°56'1 0.1
2017-Nov-13 02:00N 40°45' W 073°57'4 8.1
2017-Nov-13 01:30N 40°42' W 074°00'4 7.4
2017-Nov-13 00:58N 40°45' W 073°57'1 1.2
2017-Nov-13 00:29N 40°46' W 073°57'3 6.3
2017-Nov-13 00:00N 40°43' W 073°58'1 2.9
2017-Nov-12 23:30N 40°45' W 073°58'2 4.7
2017-Nov-12 23:00N 40°46' W 073°56'2 4.0
2017-Nov-12 22:30N 40°45' W 073°58'1 2.0
2017-Nov-12 22:00N 40°44' W 073°58'3 5.9
2017-Nov-12 21:30N 40°46' W 073°56'1 2.3
2017-Nov-12 21:00N 40°45' W 073°57'4 8.0
2017-Nov-12 20:30N 40°42' W 074°00'4 8.1
2017-Nov-12 20:00N 40°45' W 073°57'1 1.7
2017-Nov-12 19:30N 40°46' W 073°56'3 6.0
2017-Nov-12 19:01N 40°43' W 073°58'1 2.5
2017-Nov-12 18:30N 40°45' W 073°58'2 4.1
2017-Nov-12 17:58N 40°46' W 073°56'2 3.9
2017-Nov-12 17:30N 40°45' W 073°57'2 4.6
2017-Nov-12 17:00N 40°43' W 073°59'4 7.7
2017-Nov-12 16:29N 40°46' W 073°56'1 2.6
2017-Nov-12 15:59N 40°45' W 073°57'4 8.2
2017-Nov-12 15:30N 40°42' W 074°00'4 7.9
2017-Nov-12 15:00N 40°45' W 073°57'1 1.5
2017-Nov-12 14:30N 40°46' W 073°57'3 6.4
2017-Nov-12 14:00N 40°43' W 073°58'2 3.1
2017-Nov-12 13:30N 40°45' W 073°58'2 4.4
2017-Nov-12 13:00N 40°46' W 073°56'2 3.6
2017-Nov-12 12:30N 40°45' W 073°58'3 5.4
2017-Nov-12 12:01N 40°43' W 073°59'4 8.7
2017-Nov-12 11:30N 40°46' W 073°56'4 8.9
2017-Nov-12 11:00N 40°42' W 073°58'0 0.0
2017-Nov-12 03:36N 40°42' W 073°58'0 2.4
2017-Nov-12 03:31N 40°42' W 073°59'4 7.5
2017-Nov-12 03:00N 40°46' W 073°57'2 3.7
2017-Nov-12 02:30N 40°44' W 073°58'0 0.5
2017-Nov-12 02:00N 40°45' W 073°58'2 4.4
2017-Nov-12 01:29N 40°46' W 073°56'2 4.7
2017-Nov-12 01:00N 40°45' W 073°58'2 4.5
2017-Nov-12 00:30N 40°42' W 073°59'4 8.5
2017-Nov-12 00:00N 40°46' W 073°56'1 2.5
2017-Nov-11 23:30N 40°45' W 073°57'4 7.9
2017-Nov-11 23:00N 40°42' W 074°00'4 7.8
2017-Nov-11 22:30N 40°45' W 073°57'0 0.5
2017-Nov-11 21:59N 40°46' W 073°57'4 8.0
2017-Nov-11 21:30N 40°42' W 073°60'3 5.9
2017-Nov-11 21:00N 40°45' W 073°57'2 3.4
2017-Nov-11 20:30N 40°46' W 073°56'2 3.8
2017-Nov-11 20:00N 40°45' W 073°58'2 4.5
2017-Nov-11 19:30N 40°43' W 073°59'4 8.1
2017-Nov-11 19:00N 40°46' W 073°56'1 2.2
2017-Nov-11 18:30N 40°45' W 073°57'4 8.1
2017-Nov-11 18:00N 40°42' W 074°00'4 8.0
2017-Nov-11 17:30N 40°45' W 073°57'1 1.0
2017-Nov-11 16:59N 40°46' W 073°57'2 4.8
2017-Nov-11 16:30N 40°44' W 073°58'1 1.7
2017-Nov-11 16:00N 40°45' W 073°58'2 4.4
2017-Nov-11 15:29N 40°46' W 073°56'2 4.1
2017-Nov-11 15:00N 40°45' W 073°58'1 2.0
2017-Nov-11 14:30N 40°44' W 073°58'3 5.8
2017-Nov-11 14:00N 40°46' W 073°56'5 0.5
2017-Nov-11 04:20N 40°42' W 073°58'0 0.9
2017-Nov-11 04:01N 40°42' W 073°59'4 8.4
2017-Nov-11 03:30N 40°39' W 074°02'4 7.4
2017-Nov-11 03:00N 40°42' W 073°60'0 0.3
2017-Nov-11 02:31N 40°42' W 073°60'4 8.2
2017-Nov-11 02:00N 40°38' W 074°02'4 7.1
2017-Nov-11 01:31N 40°42' W 074°00'1 1.3
2017-Nov-11 01:00N 40°42' W 074°00'3 7.0
2017-Nov-11 00:30N 40°39' W 074°02'2 4.4
2017-Nov-11 00:01N 40°41' W 074°01'2 3.0
2017-Nov-10 23:30N 40°42' W 073°60'4 7.4
2017-Nov-10 23:00N 40°39' W 074°02'2 4.6
2017-Nov-10 22:30N 40°41' W 074°01'1 2.4
2017-Nov-10 22:00N 40°42' W 074°00'3 5.4
2017-Nov-10 21:30N 40°40' W 074°01'1 2.8
2017-Nov-10 21:01N 40°41' W 074°01'1 2.5
2017-Nov-10 20:30N 40°42' W 074°00'1 2.8
2017-Nov-10 20:01N 40°41' W 074°01'2 4.1
2017-Nov-10 19:30N 40°39' W 074°02'4 7.3
2017-Nov-10 19:01N 40°42' W 073°60'1 1.5
2017-Nov-10 18:30N 40°42' W 074°00'4 7.1
2017-Nov-10 18:00N 40°38' W 074°02'4 7.1
2017-Nov-10 17:30N 40°42' W 074°00'1 1.5
2017-Nov-10 17:00N 40°42' W 073°60'4 7.4
2017-Nov-10 16:30N 40°39' W 074°02'2 4.4
2017-Nov-10 16:01N 40°41' W 074°01'1 2.7
2017-Nov-10 15:30N 40°42' W 074°00'1 1.2
2017-Nov-10 15:01N 40°42' W 074°00'2 4.3
2017-Nov-10 14:31N 40°43' W 073°58'4 7.1
2017-Nov-10 14:00N 40°46' W 073°56'1 2.4
2017-Nov-10 13:30N 40°45' W 073°57'4 8.2
2017-Nov-10 13:01N 40°42' W 074°00'4 7.9
2017-Nov-10 12:30N 40°45' W 073°57'3 6.5
2017-Nov-10 12:00N 40°42' W 073°59'0 0.9
2017-Nov-10 11:30N 40°42' W 073°58'0 0.0
2017-Nov-10 04:02N 40°42' W 073°58'0 0.0
2017-Nov-10 04:00N 40°42' W 073°58'1 2.4
2017-Nov-10 03:30N 40°42' W 073°60'4 7.4
2017-Nov-10 03:00N 40°39' W 074°02'2 4.4
2017-Nov-10 02:30N 40°41' W 074°01'1 2.6
2017-Nov-10 02:00N 40°42' W 074°00'1 2.7
2017-Nov-10 01:30N 40°41' W 074°01'2 4.3
2017-Nov-10 01:00N 40°39' W 074°02'4 7.4
2017-Nov-10 00:30N 40°42' W 073°60'0 0.9
2017-Nov-10 00:01N 40°42' W 074°00'4 7.0
2017-Nov-09 23:30N 40°39' W 074°02'2 4.4
2017-Nov-09 23:00N 40°41' W 074°01'1 2.9
2017-Nov-09 22:30N 40°42' W 073°60'4 7.3
2017-Nov-09 22:00N 40°39' W 074°02'2 4.5
2017-Nov-09 21:30N 40°41' W 074°01'1 2.6
2017-Nov-09 21:00N 40°42' W 074°00'2 3.0
2017-Nov-09 20:30N 40°42' W 073°58'0 0.0
2017-Nov-09 20:00N 40°42' W 073°58'0 0.0
2017-Nov-09 19:30N 40°42' W 073°58'0 0.0
2017-Nov-09 19:00N 40°42' W 073°58'0 0.0
2017-Nov-09 18:30N 40°42' W 073°58'0 0.0
2017-Nov-09 18:00N 40°42' W 073°58'3 5.9
2017-Nov-09 17:31N 40°40' W 074°01'3 5.3
2017-Nov-09 17:00N 40°38' W 074°03'5 9.5
2017-Nov-09 16:30N 40°42' W 074°00'2 3.1
2017-Nov-09 16:00N 40°42' W 073°58'1 3.0
2017-Nov-09 15:31N 40°42' W 074°00'4 7.1
2017-Nov-09 15:00N 40°38' W 074°02'4 7.1
2017-Nov-09 14:30N 40°42' W 074°00'0 0.0
2017-Nov-09 14:00N 40°42' W 074°00'4 7.1
2017-Nov-09 13:31N 40°38' W 074°02'4 7.1
2017-Nov-09 13:01N 40°42' W 074°00'0 0.1
2017-Nov-09 12:30N 40°42' W 074°00'4 7.1
2017-Nov-09 12:01N 40°38' W 074°02'5 9.1
2017-Nov-09 11:30N 40°42' W 073°58'0 0.0
2017-Nov-09 03:36N 40°42' W 073°58'0 1.6
2017-Nov-09 03:30N 40°42' W 073°58'4 7.3
2017-Nov-09 03:00N 40°46' W 073°57'0 0.4
2017-Nov-09 02:30N 40°45' W 073°57'3 6.6
2017-Nov-09 02:00N 40°43' W 073°59'3 5.2
2017-Nov-09 01:30N 40°45' W 073°57'2 3.3
2017-Nov-09 01:00N 40°46' W 073°56'2 4.7
2017-Nov-09 00:30N 40°45' W 073°58'0 0.3
2017-Nov-09 00:00N 40°44' W 073°58'2 4.8
2017-Nov-08 23:30N 40°46' W 073°56'2 3.5
2017-Nov-08 23:01N 40°45' W 073°57'3 6.8
2017-Nov-08 22:30N 40°42' W 074°00'4 7.8
2017-Nov-08 22:00N 40°45' W 073°57'0 0.1
2017-Nov-08 21:30N 40°45' W 073°57'4 7.2
2017-Nov-08 21:00N 40°42' W 073°59'3 5.9
2017-Nov-08 20:30N 40°45' W 073°57'2 3.3
2017-Nov-08 20:00N 40°46' W 073°56'2 4.7
2017-Nov-08 19:30N 40°45' W 073°58'0 0.1
2017-Nov-08 19:00N 40°45' W 073°58'2 4.0
2017-Nov-08 18:26N 40°46' W 073°56'2 4.0
2017-Nov-08 18:01N 40°45' W 073°57'3 7.0
2017-Nov-08 17:31N 40°42' W 074°00'4 8.3
2017-Nov-08 17:00N 40°46' W 073°57'0 0.3
2017-Nov-08 16:30N 40°45' W 073°57'4 7.3
2017-Nov-08 16:01N 40°42' W 073°59'3 5.9
2017-Nov-08 15:30N 40°45' W 073°57'2 3.3
2017-Nov-08 14:59N 40°46' W 073°56'0 0.2
2017-Nov-08 14:30N 40°46' W 073°56'3 5.7
2017-Nov-08 14:01N 40°44' W 073°58'1 1.8
2017-Nov-08 13:30N 40°45' W 073°58'2 4.1
2017-Nov-08 12:59N 40°46' W 073°56'2 3.7
2017-Nov-08 12:30N 40°45' W 073°57'2 3.1
2017-Nov-08 12:01N 40°43' W 073°58'3 6.2
2017-Nov-08 11:29N 40°46' W 073°56'5 9.4
2017-Nov-08 11:00N 40°42' W 073°58'1 0.1
2017-Nov-08 03:52N 40°42' W 073°59'411.7
2017-Nov-08 03:30N 40°39' W 074°02'4 7.4
2017-Nov-08 03:00N 40°42' W 073°60'0 0.8
2017-Nov-08 02:30N 40°42' W 074°00'4 7.7
2017-Nov-08 02:00N 40°38' W 074°02'4 7.2
2017-Nov-08 01:30N 40°42' W 074°00'1 1.3
2017-Nov-08 01:01N 40°42' W 074°00'4 7.0
2017-Nov-08 00:30N 40°39' W 074°02'2 4.4
2017-Nov-08 00:00N 40°41' W 074°01'1 2.9
2017-Nov-07 23:31N 40°42' W 073°60'4 7.3
2017-Nov-07 23:00N 40°39' W 074°02'2 4.5
2017-Nov-07 22:31N 40°41' W 074°01'1 2.5
2017-Nov-07 22:01N 40°42' W 074°00'3 6.9
2017-Nov-07 21:30N 40°39' W 074°02'2 4.3
2017-Nov-07 21:01N 40°41' W 074°01'1 2.7
2017-Nov-07 20:31N 40°42' W 074°00'1 2.5
2017-Nov-07 20:01N 40°41' W 074°01'2 4.0
2017-Nov-07 19:31N 40°39' W 074°02'3 6.9
2017-Nov-07 19:00N 40°42' W 073°60'1 1.5
2017-Nov-07 18:31N 40°42' W 074°00'4 7.1
2017-Nov-07 18:00N 40°38' W 074°02'4 7.1
2017-Nov-07 17:30N 40°42' W 074°00'1 1.5
2017-Nov-07 17:01N 40°42' W 073°60'4 7.4
2017-Nov-07 16:30N 40°39' W 074°02'2 4.4
2017-Nov-07 16:00N 40°41' W 074°01'1 2.6
2017-Nov-07 15:30N 40°42' W 074°00'1 1.3
2017-Nov-07 15:01N 40°42' W 074°00'4 7.1
2017-Nov-07 14:30N 40°38' W 074°02'4 7.1
2017-Nov-07 14:00N 40°42' W 074°00'0 0.1
2017-Nov-07 13:30N 40°42' W 074°00'4 7.1
2017-Nov-07 13:01N 40°38' W 074°02'4 7.1
2017-Nov-07 12:31N 40°42' W 074°00'0 0.0
2017-Nov-07 12:00N 40°42' W 074°00'4 7.1
2017-Nov-07 11:30N 40°38' W 074°02'5 9.5
2017-Nov-07 11:01N 40°42' W 073°58'0 0.0
2017-Nov-07 04:06N 40°42' W 073°58'0 0.0
2017-Nov-07 04:00N 40°42' W 073°58'4 8.2
2017-Nov-07 03:30N 40°39' W 074°02'4 7.3
2017-Nov-07 03:00N 40°42' W 073°60'1 1.2
2017-Nov-07 02:30N 40°42' W 074°00'4 7.4
2017-Nov-07 02:00N 40°38' W 074°02'4 7.1
2017-Nov-07 01:31N 40°42' W 074°00'1 1.3
2017-Nov-07 01:00N 40°42' W 074°00'3 6.7
2017-Nov-07 00:31N 40°39' W 074°02'2 4.0
2017-Nov-07 00:00N 40°41' W 074°01'1 2.7
2017-Nov-06 23:31N 40°42' W 074°00'4 7.1
2017-Nov-06 23:00N 40°39' W 074°02'2 4.4
2017-Nov-06 22:31N 40°41' W 074°01'1 2.7
2017-Nov-06 22:00N 40°42' W 074°00'3 6.9
2017-Nov-06 21:30N 40°39' W 074°02'2 4.3
2017-Nov-06 21:00N 40°41' W 074°01'1 2.6
2017-Nov-06 20:30N 40°42' W 074°00'4 0.2
2017-Nov-06 02:30N 40°38' W 074°02'3 6.6
2017-Nov-06 02:00N 40°41' W 074°00'1 1.9
2017-Nov-06 01:30N 40°42' W 073°60'4 7.3
2017-Nov-06 01:00N 40°39' W 074°02'2 4.6
2017-Nov-06 00:30N 40°41' W 074°01'1 2.4
2017-Nov-06 00:00N 40°42' W 074°00'1 2.7
2017-Nov-05 23:31N 40°41' W 074°01'2 4.3
2017-Nov-05 23:00N 40°39' W 074°02'4 7.0
2017-Nov-05 22:30N 40°42' W 074°00'1 2.5
2017-Nov-05 22:01N 40°41' W 074°01'3 5.7
2017-Nov-05 21:30N 40°38' W 074°02'3 6.7
2017-Nov-05 21:00N 40°41' W 074°00'0 0.5
2017-Nov-05 20:30N 40°42' W 074°00'  

Dump ship's entire track history